Time;durP1;ratioP1;P1;durP2;ratioP2;P2;SDS_P1;SDS_P2;PMS_P1;PMS_P2;Temp;Humidity;BMP_temperature;BMP_pressure;BME280_temperature;BME280_humidity;BME280_pressure;Samples;Min_cycle;Max_cycle;Signal;HPM_P1;HPM_P2
2023/03/18 00:00:16;;;;;;;1.07;0.97;;;;;;;;;;4976727;28;87176;-56
2023/03/18 00:02:45;;;;;;;1.43;1.00;;;;;;;;;;4979328;28;89017;-56
2023/03/18 00:05:13;;;;;;;0.83;0.83;;;;;;;;;;4976519;28;89559;-56
2023/03/18 00:07:42;;;;;;;1.13;1.07;;;;;;;;;;4978594;28;87361;-56
2023/03/18 00:10:11;;;;;;;1.27;1.20;;;;;;;;;;4979219;28;88077;-56
2023/03/18 00:12:41;;;;;;;2.93;1.50;;;;;;;;;;4976382;28;89386;-56
2023/03/18 00:15:11;;;;;;;1.80;1.10;;;;;;;;;;4977856;28;87893;-56
2023/03/18 00:17:41;;;;;;;1.37;1.03;;;;;;;;;;4977715;28;87405;-56
2023/03/18 00:20:12;;;;;;;0.77;0.60;;;;;;;;;;4979067;28;86745;-55
2023/03/18 00:22:41;;;;;;;1.90;1.20;;;;;;;;;;4976383;28;88283;-56
2023/03/18 00:25:10;;;;;;;1.57;0.90;;;;;;;;;;4974371;28;88288;-56
2023/03/18 00:27:40;;;;;;;2.90;1.10;;;;;;;;;;4972377;28;88224;-55
2023/03/18 00:30:09;;;;;;;2.97;1.13;;;;;;;;;;4976063;28;87453;-56
2023/03/18 00:32:40;;;;;;;1.50;0.83;;;;;;;;;;4979118;28;87917;-55
2023/03/18 00:35:09;;;;;;;3.37;1.33;;;;;;;;;;4969226;28;87633;-56
2023/03/18 00:37:38;;;;;;;2.00;1.20;;;;;;;;;;4980069;28;86997;-55
2023/03/18 00:40:09;;;;;;;1.87;1.27;;;;;;;;;;4978369;28;87217;-56
2023/03/18 00:42:46;;;;;;;1.27;1.10;;;;;;;;;;4970291;28;88251;-56
2023/03/18 00:45:19;;;;;;;1.30;1.00;;;;;;;;;;4968550;28;87744;-56
2023/03/18 00:47:49;;;;;;;2.20;1.13;;;;;;;;;;4977900;28;87020;-56
2023/03/18 00:50:17;;;;;;;1.20;1.00;;;;;;;;;;4971054;28;87074;-55
2023/03/18 00:52:45;;;;;;;1.27;1.00;;;;;;;;;;4979092;28;89781;-56
2023/03/18 00:55:16;;;;;;;0.90;0.90;;;;;;;;;;4979746;28;88845;-56
2023/03/18 00:57:45;;;;;;;1.10;1.00;;;;;;;;;;4980008;28;87095;-56
2023/03/18 01:00:15;;;;;;;1.03;0.77;;;;;;;;;;4969929;28;87078;-56
2023/03/18 01:02:48;;;;;;;1.37;1.23;;;;;;;;;;4970519;28;86993;-56
2023/03/18 01:05:17;;;;;;;1.00;1.00;;;;;;;;;;4956279;28;88947;-56
2023/03/18 01:07:46;;;;;;;2.07;1.10;;;;;;;;;;4975786;28;87213;-56
2023/03/18 01:10:14;;;;;;;0.87;0.80;;;;;;;;;;4975245;28;86302;-55
2023/03/18 01:12:45;;;;;;;1.67;1.23;;;;;;;;;;4969510;28;89177;-56
2023/03/18 01:15:15;;;;;;;1.13;0.80;;;;;;;;;;4980371;28;87694;-56
2023/03/18 01:17:45;;;;;;;0.87;0.80;;;;;;;;;;4972947;28;88040;-56
2023/03/18 01:20:15;;;;;;;1.33;1.17;;;;;;;;;;4974729;28;87789;-56
2023/03/18 01:22:45;;;;;;;1.80;0.93;;;;;;;;;;4982357;28;87887;-55
2023/03/18 01:25:15;;;;;;;0.80;0.80;;;;;;;;;;4976222;28;88931;-56
2023/03/18 01:27:46;;;;;;;0.97;0.90;;;;;;;;;;4978376;28;87782;-55
2023/03/18 01:30:15;;;;;;;1.37;1.10;;;;;;;;;;4982529;28;87079;-56
2023/03/18 01:32:48;;;;;;;0.77;0.70;;;;;;;;;;4981698;28;88065;-55
2023/03/18 01:35:17;;;;;;;1.40;1.00;;;;;;;;;;4981137;28;86621;-56
2023/03/18 01:37:47;;;;;;;0.63;0.63;;;;;;;;;;4972869;28;88362;-56
2023/03/18 01:40:16;;;;;;;1.40;1.00;;;;;;;;;;4966781;28;87019;-56
2023/03/18 01:42:48;;;;;;;1.87;0.90;;;;;;;;;;4963934;28;90112;-56
2023/03/18 01:45:18;;;;;;;2.00;0.97;;;;;;;;;;4974490;28;90136;-56
2023/03/18 01:47:46;;;;;;;1.20;1.10;;;;;;;;;;4982108;28;87768;-56
2023/03/18 01:50:17;;;;;;;0.87;0.80;;;;;;;;;;4981677;28;87040;-55
2023/03/18 01:52:46;;;;;;;1.40;0.93;;;;;;;;;;4981405;28;89303;-56
2023/03/18 01:55:17;;;;;;;1.57;0.83;;;;;;;;;;4981721;28;88184;-56
2023/03/18 01:57:46;;;;;;;5.30;1.30;;;;;;;;;;4963321;28;87099;-55
2023/03/18 02:00:16;;;;;;;1.63;1.10;;;;;;;;;;4981502;28;86264;-56
2023/03/18 02:02:44;;;;;;;0.80;0.80;;;;;;;;;;4971655;28;88292;-56
2023/03/18 02:05:19;;;;;;;1.07;0.97;;;;;;;;;;4981865;28;87755;-56
2023/03/18 02:07:47;;;;;;;3.07;1.00;;;;;;;;;;4979686;28;88815;-56
2023/03/18 02:10:18;;;;;;;1.70;1.20;;;;;;;;;;4971114;28;87001;-56
2023/03/18 02:12:59;;;;;;;1.40;1.20;;;;;;;;;;4978460;28;88118;-55
2023/03/18 02:15:30;;;;;;;3.13;1.17;;;;;;;;;;4976574;28;88984;-56
2023/03/18 02:17:59;;;;;;;0.90;0.90;;;;;;;;;;4961711;28;87069;-56
2023/03/18 02:20:33;;;;;;;0.80;0.80;;;;;;;;;;4969509;28;87051;-56
2023/03/18 02:23:01;;;;;;;2.80;1.20;;;;;;;;;;4976068;28;88158;-56
2023/03/18 02:25:36;;;;;;;2.70;1.20;;;;;;;;;;4980931;28;87820;-56
2023/03/18 02:28:08;;;;;;;1.57;1.10;;;;;;;;;;4981666;28;87000;-55
2023/03/18 02:30:37;;;;;;;2.10;1.00;;;;;;;;;;4981542;28;87066;-56
2023/03/18 02:33:07;;;;;;;1.00;0.70;;;;;;;;;;4980204;28;88922;-56
2023/03/18 02:35:36;;;;;;;2.30;1.20;;;;;;;;;;4977222;28;89828;-56
2023/03/18 02:38:04;;;;;;;0.87;0.70;;;;;;;;;;4971477;28;87258;-55
2023/03/18 02:40:33;;;;;;;0.63;0.60;;;;;;;;;;4980016;28;87271;-56
2023/03/18 02:43:19;;;;;;;1.03;0.93;;;;;;;;;;4978367;28;87087;-56
2023/03/18 02:45:50;;;;;;;1.17;1.00;;;;;;;;;;4980977;28;87124;-55
2023/03/18 02:48:19;;;;;;;1.13;1.03;;;;;;;;;;4981339;28;87034;-56
2023/03/18 02:50:49;;;;;;;1.40;1.10;;;;;;;;;;4981268;28;86237;-55
2023/03/18 02:53:17;;;;;;;1.23;0.90;;;;;;;;;;4969250;28;88181;-56
2023/03/18 02:55:45;;;;;;;2.27;1.70;;;;;;;;;;4980701;28;88998;-56
2023/03/18 02:58:18;;;;;;;1.40;1.30;;;;;;;;;;4980205;28;88070;-55
2023/03/18 03:00:46;;;;;;;1.47;1.00;;;;;;;;;;4977183;28;87116;-56
2023/03/18 03:03:15;;;;;;;2.10;1.27;;;;;;;;;;4978974;28;88273;-55
2023/03/18 03:05:43;;;;;;;1.43;1.10;;;;;;;;;;4980985;28;87853;-56
2023/03/18 03:08:12;;;;;;;4.13;1.43;;;;;;;;;;4980065;28;87009;-55
2023/03/18 03:10:40;;;;;;;1.67;1.03;;;;;;;;;;4968635;28;88209;-56
2023/03/18 03:13:10;;;;;;;0.93;0.87;;;;;;;;;;4968464;28;88150;-57
2023/03/18 03:15:42;;;;;;;1.87;1.53;;;;;;;;;;4980940;28;89172;-55
2023/03/18 03:18:11;;;;;;;1.50;0.93;;;;;;;;;;4980390;28;87038;-56
2023/03/18 03:20:39;;;;;;;1.93;1.20;;;;;;;;;;4980533;28;86948;-55
2023/03/18 03:23:08;;;;;;;0.80;0.80;;;;;;;;;;4978721;28;89090;-55
2023/03/18 03:25:37;;;;;;;1.00;0.90;;;;;;;;;;4978333;28;88911;-55
2023/03/18 03:28:06;;;;;;;1.90;1.03;;;;;;;;;;4978741;28;86928;-56
2023/03/18 03:30:35;;;;;;;1.20;1.13;;;;;;;;;;4979467;28;87551;-56
2023/03/18 03:33:05;;;;;;;1.40;1.17;;;;;;;;;;4973584;28;88424;-56
2023/03/18 03:35:33;;;;;;;0.90;0.70;;;;;;;;;;4969024;28;88387;-56
2023/03/18 03:38:02;;;;;;;1.27;1.03;;;;;;;;;;4962036;28;87460;-56
2023/03/18 03:40:31;;;;;;;0.90;0.90;;;;;;;;;;4979431;28;86355;-56
2023/03/18 03:42:59;;;;;;;1.67;0.87;;;;;;;;;;4978142;28;88088;-56
2023/03/18 03:45:28;;;;;;;1.37;0.87;;;;;;;;;;4979113;28;88835;-56
2023/03/18 03:47:56;;;;;;;0.70;0.70;;;;;;;;;;4975731;28;87937;-56
2023/03/18 03:50:26;;;;;;;0.60;0.60;;;;;;;;;;4967507;28;87138;-56
2023/03/18 03:52:57;;;;;;;1.00;0.90;;;;;;;;;;4975549;28;88786;-56
2023/03/18 03:55:25;;;;;;;1.47;0.83;;;;;;;;;;4970204;28;87996;-56
2023/03/18 03:57:54;;;;;;;1.53;1.00;;;;;;;;;;4975699;28;87192;-56
2023/03/18 04:00:23;;;;;;;1.60;0.97;;;;;;;;;;4979903;28;87027;-56
2023/03/18 04:02:52;;;;;;;1.57;1.13;;;;;;;;;;4979810;28;88556;-55
2023/03/18 04:05:21;;;;;;;1.30;1.03;;;;;;;;;;4978179;28;86481;-55
2023/03/18 04:07:51;;;;;;;1.37;1.27;;;;;;;;;;4976937;28;87778;-56
2023/03/18 04:10:19;;;;;;;1.10;1.00;;;;;;;;;;4979667;28;87062;-56
2023/03/18 04:12:48;;;;;;;1.33;1.03;;;;;;;;;;4976194;28;88027;-56
2023/03/18 04:15:17;;;;;;;2.00;1.07;;;;;;;;;;4976638;28;87467;-55
2023/03/18 04:17:45;;;;;;;1.00;0.90;;;;;;;;;;4976418;28;87175;-56
2023/03/18 04:20:15;;;;;;;1.17;0.90;;;;;;;;;;4977849;28;87172;-55
2023/03/18 04:22:44;;;;;;;1.87;0.80;;;;;;;;;;4966459;28;89275;-56
2023/03/18 04:25:14;;;;;;;1.50;0.90;;;;;;;;;;4980121;28;87949;-56
2023/03/18 04:27:43;;;;;;;1.27;1.00;;;;;;;;;;4978546;28;87091;-56
2023/03/18 04:30:12;;;;;;;0.87;0.87;;;;;;;;;;4978917;28;86197;-56
2023/03/18 04:32:40;;;;;;;1.57;1.40;;;;;;;;;;4979119;28;89557;-56
2023/03/18 04:35:10;;;;;;;1.00;1.00;;;;;;;;;;4979451;28;89050;-56
2023/03/18 04:37:38;;;;;;;1.33;1.03;;;;;;;;;;4962406;28;89482;-55
2023/03/18 04:40:07;;;;;;;0.80;0.80;;;;;;;;;;4978974;28;87151;-56
2023/03/18 04:42:36;;;;;;;5.93;1.70;;;;;;;;;;4978895;28;87058;-56
2023/03/18 04:45:05;;;;;;;1.33;0.90;;;;;;;;;;4980052;28;87061;-56
2023/03/18 04:47:34;;;;;;;1.53;0.90;;;;;;;;;;4969342;28;87896;-56
2023/03/18 04:50:04;;;;;;;1.37;1.00;;;;;;;;;;4981751;28;86964;-56
2023/03/18 04:52:32;;;;;;;1.37;1.00;;;;;;;;;;4982139;28;89124;-57
2023/03/18 04:55:01;;;;;;;1.47;1.00;;;;;;;;;;4983278;28;86546;-55
2023/03/18 04:57:30;;;;;;;0.97;0.97;;;;;;;;;;4983278;28;87061;-55
2023/03/18 05:00:01;;;;;;;3.40;0.97;;;;;;;;;;4982870;28;88286;-55
2023/03/18 05:02:29;;;;;;;1.63;0.80;;;;;;;;;;4982003;28;89159;-56
2023/03/18 05:04:59;;;;;;;3.00;1.17;;;;;;;;;;4982626;28;89892;-56
2023/03/18 05:07:29;;;;;;;1.37;1.13;;;;;;;;;;4981368;28;87290;-56
2023/03/18 05:09:57;;;;;;;1.17;1.07;;;;;;;;;;4983006;28;87026;-56
2023/03/18 05:12:26;;;;;;;1.07;0.97;;;;;;;;;;4977418;28;89276;-55
2023/03/18 05:14:54;;;;;;;0.80;0.80;;;;;;;;;;4980143;28;88810;-54
2023/03/18 05:17:24;;;;;;;0.53;0.50;;;;;;;;;;4982429;28;87055;-58
2023/03/18 05:19:52;;;;;;;1.10;0.80;;;;;;;;;;4982738;28;86351;-56
2023/03/18 05:22:21;;;;;;;1.17;1.00;;;;;;;;;;4982811;28;88290;-56
2023/03/18 05:24:50;;;;;;;1.47;0.90;;;;;;;;;;4982863;28;87760;-58
2023/03/18 05:27:20;;;;;;;1.70;1.27;;;;;;;;;;4982210;28;88069;-56
2023/03/18 05:29:52;;;;;;;1.00;0.80;;;;;;;;;;4982237;28;87061;-55
2023/03/18 05:32:20;;;;;;;1.03;0.93;;;;;;;;;;4981028;28;88311;-56
2023/03/18 05:34:51;;;;;;;0.83;0.67;;;;;;;;;;4981758;28;87750;-56
2023/03/18 05:37:19;;;;;;;1.07;0.80;;;;;;;;;;4982501;28;87287;-55
2023/03/18 05:39:48;;;;;;;0.97;0.70;;;;;;;;;;4982564;28;87028;-55
2023/03/18 05:42:17;;;;;;;0.70;0.70;;;;;;;;;;4979578;28;88286;-56
2023/03/18 05:44:45;;;;;;;0.80;0.80;;;;;;;;;;4982648;28;86645;-56
2023/03/18 05:47:14;;;;;;;1.50;1.07;;;;;;;;;;4982337;28;86965;-56
2023/03/18 05:49:42;;;;;;;1.10;0.90;;;;;;;;;;4978594;28;86968;-56
2023/03/18 05:52:16;;;;;;;1.17;1.07;;;;;;;;;;4981500;28;89107;-56
2023/03/18 05:54:44;;;;;;;1.30;1.20;;;;;;;;;;4973915;28;88824;-56
2023/03/18 05:57:14;;;;;;;1.47;0.67;;;;;;;;;;4982302;28;86981;-56
2023/03/18 05:59:45;;;;;;;0.57;0.53;;;;;;;;;;4981474;28;87049;-55
2023/03/18 06:02:16;;;;;;;0.50;0.50;;;;;;;;;;4981676;28;88079;-56
2023/03/18 06:04:46;;;;;;;1.10;1.00;;;;;;;;;;4981366;28;87063;-56
2023/03/18 06:07:16;;;;;;;0.80;0.80;;;;;;;;;;4982345;28;88159;-56
2023/03/18 06:09:44;;;;;;;0.63;0.63;;;;;;;;;;4982130;28;86379;-56
2023/03/18 06:12:13;;;;;;;1.37;0.87;;;;;;;;;;4981870;28;88098;-56
2023/03/18 06:14:41;;;;;;;0.67;0.67;;;;;;;;;;4979217;28;88936;-56
2023/03/18 06:17:10;;;;;;;2.33;0.80;;;;;;;;;;4982127;28;87950;-56
2023/03/18 06:19:38;;;;;;;3.07;1.30;;;;;;;;;;4977968;28;87074;-56
2023/03/18 06:22:07;;;;;;;0.70;0.70;;;;;;;;;;4981696;28;87844;-57
2023/03/18 06:24:41;;;;;;;1.50;0.80;;;;;;;;;;4980301;28;88991;-56
2023/03/18 06:27:10;;;;;;;1.40;1.10;;;;;;;;;;4981508;28;87029;-56
2023/03/18 06:29:39;;;;;;;2.17;0.70;;;;;;;;;;4980735;28;87054;-56
2023/03/18 06:32:08;;;;;;;2.50;1.00;;;;;;;;;;4975270;28;88171;-56
2023/03/18 06:34:40;;;;;;;0.60;0.60;;;;;;;;;;4981050;28;87412;-56
2023/03/18 06:37:09;;;;;;;0.97;0.70;;;;;;;;;;4981869;28;86951;-55
2023/03/18 06:39:39;;;;;;;0.70;0.70;;;;;;;;;;4981577;28;87133;-56
2023/03/18 06:42:08;;;;;;;1.33;0.80;;;;;;;;;;4977553;28;89072;-56
2023/03/18 06:44:38;;;;;;;1.57;0.80;;;;;;;;;;4981568;28;88944;-55
2023/03/18 06:47:07;;;;;;;0.90;0.70;;;;;;;;;;4976355;28;87107;-55
2023/03/18 06:49:36;;;;;;;0.70;0.70;;;;;;;;;;4980299;28;87983;-57
2023/03/18 06:52:04;;;;;;;1.47;0.80;;;;;;;;;;4981102;28;88163;-57
2023/03/18 06:54:33;;;;;;;1.30;1.00;;;;;;;;;;4981379;28;87263;-56
2023/03/18 06:57:02;;;;;;;1.27;1.00;;;;;;;;;;4981099;28;87052;-54
2023/03/18 06:59:31;;;;;;;0.93;0.93;;;;;;;;;;4980703;28;86425;-53
2023/03/18 07:01:59;;;;;;;1.17;0.93;;;;;;;;;;4980863;28;88843;-54
2023/03/18 07:04:29;;;;;;;3.13;0.93;;;;;;;;;;4980360;28;89179;-54
2023/03/18 07:06:59;;;;;;;3.10;0.70;;;;;;;;;;4982319;28;87994;-53
2023/03/18 07:09:27;;;;;;;0.80;0.80;;;;;;;;;;4982132;28;87576;-53
2023/03/18 07:11:57;;;;;;;1.40;1.10;;;;;;;;;;4981214;28;87876;-54
2023/03/18 07:14:28;;;;;;;0.80;0.77;;;;;;;;;;4980630;28;87907;-54
2023/03/18 07:16:56;;;;;;;1.97;1.27;;;;;;;;;;4978110;28;88276;-53
2023/03/18 07:19:25;;;;;;;1.23;0.80;;;;;;;;;;4982214;28;87052;-53
2023/03/18 07:21:53;;;;;;;1.33;0.80;;;;;;;;;;4963039;28;86974;-54
2023/03/18 07:24:21;;;;;;;2.20;0.90;;;;;;;;;;4966465;28;86683;-53
2023/03/18 07:26:50;;;;;;;0.80;0.60;;;;;;;;;;4982431;28;87099;-54
2023/03/18 07:29:19;;;;;;;0.80;0.70;;;;;;;;;;4982375;28;87106;-54
2023/03/18 07:31:49;;;;;;;0.90;0.90;;;;;;;;;;4981246;28;89004;-54
2023/03/18 07:34:17;;;;;;;0.80;0.80;;;;;;;;;;4980456;28;88750;-54
2023/03/18 07:36:48;;;;;;;2.10;1.00;;;;;;;;;;4977836;28;87092;-53
2023/03/18 07:39:19;;;;;;;1.00;0.70;;;;;;;;;;4981224;28;86977;-54
2023/03/18 07:41:48;;;;;;;1.03;0.97;;;;;;;;;;4981941;28;88188;-55
2023/03/18 07:44:16;;;;;;;1.53;1.40;;;;;;;;;;4974085;28;88830;-55
2023/03/18 07:46:45;;;;;;;1.10;0.80;;;;;;;;;;4979741;28;87142;-55
2023/03/18 07:49:15;;;;;;;0.73;0.60;;;;;;;;;;4980605;28;86314;-55
2023/03/18 07:51:43;;;;;;;1.17;0.80;;;;;;;;;;4981951;28;88332;-54
2023/03/18 07:54:13;;;;;;;1.27;0.93;;;;;;;;;;4981867;28;87959;-55
2023/03/18 07:56:41;;;;;;;0.60;0.60;;;;;;;;;;4981461;28;87947;-54
2023/03/18 07:59:09;;;;;;;1.17;0.63;;;;;;;;;;4981566;28;87039;-54
2023/03/18 08:01:38;;;;;;;3.13;1.27;;;;;;;;;;4981979;28;88182;-54
2023/03/18 08:04:06;;;;;;;1.37;1.27;;;;;;;;;;4980830;28;88936;-58
2023/03/18 08:06:37;;;;;;;4.70;0.93;;;;;;;;;;4981017;28;88994;-56
2023/03/18 08:09:06;;;;;;;0.50;0.50;;;;;;;;;;4980905;28;87024;-56
2023/03/18 08:11:34;;;;;;;5.20;1.03;;;;;;;;;;4981289;28;87999;-57
2023/03/18 08:14:02;;;;;;;1.13;1.03;;;;;;;;;;4982289;28;88786;-56
2023/03/18 08:16:33;;;;;;;0.97;0.80;;;;;;;;;;4980970;28;87055;-56
2023/03/18 08:19:04;;;;;;;0.97;0.93;;;;;;;;;;4980545;28;87077;-56
2023/03/18 08:21:32;;;;;;;1.43;1.10;;;;;;;;;;4981051;28;89264;-57
2023/03/18 08:24:02;;;;;;;1.40;1.03;;;;;;;;;;4981322;28;89858;-56
2023/03/18 08:26:33;;;;;;;1.10;0.90;;;;;;;;;;4981766;28;87966;-55
2023/03/18 08:29:02;;;;;;;0.63;0.63;;;;;;;;;;4981243;28;87130;-56
2023/03/18 08:31:30;;;;;;;1.43;0.97;;;;;;;;;;4979668;28;87741;-57
2023/03/18 08:34:00;;;;;;;1.80;1.03;;;;;;;;;;4979428;28;88768;-57
2023/03/18 08:36:28;;;;;;;1.47;1.00;;;;;;;;;;4979421;28;87051;-57
2023/03/18 08:38:59;;;;;;;1.53;1.30;;;;;;;;;;4980791;28;87918;-57
2023/03/18 08:41:29;;;;;;;1.93;1.13;;;;;;;;;;4981341;28;88155;-57
2023/03/18 08:43:57;;;;;;;1.43;1.17;;;;;;;;;;4981346;28;87051;-57
2023/03/18 08:46:26;;;;;;;2.73;1.10;;;;;;;;;;4981634;28;87810;-57
2023/03/18 08:48:54;;;;;;;1.10;0.87;;;;;;;;;;4981866;28;87015;-57
2023/03/18 08:51:24;;;;;;;2.83;1.00;;;;;;;;;;4981064;28;89200;-56
2023/03/18 08:53:53;;;;;;;1.63;0.90;;;;;;;;;;4978912;28;88697;-57
2023/03/18 08:56:21;;;;;;;1.00;0.67;;;;;;;;;;4969016;28;87013;-57
2023/03/18 08:58:53;;;;;;;2.23;0.97;;;;;;;;;;4991004;28;87037;-57
2023/03/18 09:01:21;;;;;;;1.03;0.90;;;;;;;;;;4973332;28;88451;-57
2023/03/18 09:03:55;;;;;;;0.97;0.87;;;;;;;;;;4972063;28;87620;-55
2023/03/18 09:06:26;;;;;;;1.10;0.80;;;;;;;;;;4977253;28;87369;-56
2023/03/18 09:08:55;;;;;;;0.90;0.90;;;;;;;;;;4980414;28;88667;-57
2023/03/18 09:11:23;;;;;;;1.00;0.90;;;;;;;;;;4978624;28;89207;-56
2023/03/18 09:13:53;;;;;;;3.73;1.40;;;;;;;;;;4984821;28;89823;-56
2023/03/18 09:16:23;;;;;;;1.60;0.90;;;;;;;;;;4999685;28;86977;-56
2023/03/18 09:18:52;;;;;;;0.77;0.70;;;;;;;;;;4979711;28;87756;-57
2023/03/18 09:21:21;;;;;;;1.03;0.60;;;;;;;;;;4970176;28;88258;-57
2023/03/18 09:23:51;;;;;;;0.80;0.80;;;;;;;;;;4982397;28;87957;-57
2023/03/18 09:26:20;;;;;;;1.03;0.90;;;;;;;;;;5001341;28;87037;-56
2023/03/18 09:28:49;;;;;;;1.00;0.90;;;;;;;;;;4991446;28;86302;-57
2023/03/18 09:31:19;;;;;;;1.37;1.10;;;;;;;;;;4980626;28;89056;-56
2023/03/18 09:33:48;;;;;;;0.67;0.67;;;;;;;;;;4980476;28;87779;-57
2023/03/18 09:36:17;;;;;;;1.27;1.17;;;;;;;;;;4974999;28;87993;-56
2023/03/18 09:38:45;;;;;;;0.93;0.90;;;;;;;;;;4984147;28;87071;-56
2023/03/18 09:41:18;;;;;;;0.80;0.70;;;;;;;;;;4983884;28;88084;-57
2023/03/18 09:43:52;;;;;;;0.80;0.80;;;;;;;;;;4983878;28;88048;-57
2023/03/18 09:46:27;;;;;;;0.90;0.80;;;;;;;;;;4984007;28;87028;-56
2023/03/18 09:48:58;;;;;;;0.70;0.70;;;;;;;;;;4984200;28;87103;-56
2023/03/18 09:51:29;;;;;;;0.90;0.90;;;;;;;;;;4983565;28;88151;-56
2023/03/18 09:53:59;;;;;;;1.20;1.10;;;;;;;;;;4985216;28;87771;-57
2023/03/18 09:56:31;;;;;;;1.00;0.90;;;;;;;;;;5004337;28;87070;-56
2023/03/18 09:59:00;;;;;;;1.10;1.10;;;;;;;;;;5003676;28;87026;-57
2023/03/18 10:01:33;;;;;;;0.70;0.70;;;;;;;;;;5002760;28;88688;-57
2023/03/18 10:04:02;;;;;;;4.20;0.90;;;;;;;;;;5003155;28;89824;-56
2023/03/18 10:06:31;;;;;;;1.43;1.13;;;;;;;;;;5003976;28;87109;-56
2023/03/18 10:09:02;;;;;;;1.30;0.80;;;;;;;;;;5003853;28;87064;-56
2023/03/18 10:11:31;;;;;;;0.70;0.70;;;;;;;;;;4987450;28;88204;-57
2023/03/18 10:14:07;;;;;;;0.80;0.77;;;;;;;;;;4980798;28;87135;-56
2023/03/18 10:16:39;;;;;;;0.50;0.50;;;;;;;;;;4983649;28;87063;-57
2023/03/18 10:19:08;;;;;;;0.40;0.40;;;;;;;;;;4976500;28;86341;-56
2023/03/18 10:21:38;;;;;;;0.63;0.60;;;;;;;;;;4983118;28;89843;-57
2023/03/18 10:24:10;;;;;;;1.90;0.87;;;;;;;;;;4981240;28;89020;-55
2023/03/18 10:26:41;;;;;;;4.33;0.70;;;;;;;;;;4959153;28;87816;-56
2023/03/18 10:29:20;;;;;;;1.27;0.90;;;;;;;;;;4963403;28;87017;-56
2023/03/18 10:31:58;;;;;;;1.73;0.80;;;;;;;;;;4964004;28;89205;-55
2023/03/18 10:34:28;;;;;;;1.53;1.30;;;;;;;;;;4963776;28;87838;-56
2023/03/18 10:37:00;;;;;;;3.03;1.40;;;;;;;;;;4973060;28;87036;-56
2023/03/18 10:39:28;;;;;;;3.33;1.97;;;;;;;;;;4983157;28;87068;-56
2023/03/18 10:41:57;;;;;;;1.67;1.30;;;;;;;;;;4983039;28;87908;-55
2023/03/18 10:44:25;;;;;;;2.00;1.47;;;;;;;;;;4983153;28;89165;-55
2023/03/18 10:46:56;;;;;;;1.53;1.33;;;;;;;;;;4983485;28;87026;-55
2023/03/18 10:49:26;;;;;;;3.13;1.93;;;;;;;;;;4983267;28;86781;-56
2023/03/18 10:51:55;;;;;;;2.37;1.00;;;;;;;;;;4982286;28;90045;-61
2023/03/18 10:54:24;;;;;;;2.43;1.83;;;;;;;;;;4978963;28;89917;-62
2023/03/18 10:56:52;;;;;;;1.60;1.20;;;;;;;;;;4960945;28;86736;-57
2023/03/18 10:59:21;;;;;;;1.63;1.47;;;;;;;;;;4963522;28;86927;-56
2023/03/18 11:01:51;;;;;;;2.23;1.43;;;;;;;;;;4963125;28;88404;-56
2023/03/18 11:04:20;;;;;;;2.33;1.80;;;;;;;;;;4963304;28;87801;-58
2023/03/18 11:06:50;;;;;;;1.60;1.50;;;;;;;;;;4963217;28;87053;-57
2023/03/18 11:09:19;;;;;;;2.80;1.63;;;;;;;;;;4963394;28;86183;-56
2023/03/18 11:11:48;;;;;;;3.97;1.77;;;;;;;;;;4962872;28;88158;-57
2023/03/18 11:14:18;;;;;;;2.83;1.87;;;;;;;;;;4974400;28;89030;-55
2023/03/18 11:16:48;;;;;;;5.27;2.13;;;;;;;;;;4982443;28;87977;-58
2023/03/18 11:19:24;;;;;;;4.03;1.63;;;;;;;;;;4993194;28;87094;-57
2023/03/18 11:22:03;;;;;;;2.90;2.27;;;;;;;;;;5002970;28;89127;-58
2023/03/18 11:24:38;;;;;;;3.67;2.30;;;;;;;;;;5002942;28;87715;-55
2023/03/18 11:27:13;;;;;;;4.07;1.50;;;;;;;;;;5002693;28;87152;-54
2023/03/18 11:29:43;;;;;;;2.60;1.30;;;;;;;;;;5002366;28;86979;-54
2023/03/18 11:32:23;;;;;;;2.23;1.80;;;;;;;;;;5001911;28;89066;-54
2023/03/18 11:34:56;;;;;;;5.50;1.87;;;;;;;;;;5002583;28;86471;-54
2023/03/18 11:37:30;;;;;;;9.57;2.43;;;;;;;;;;5001820;28;87127;-54
2023/03/18 11:40:10;;;;;;;2.07;1.73;;;;;;;;;;5001841;28;87623;-54
2023/03/18 11:42:40;;;;;;;2.93;1.70;;;;;;;;;;5001910;28;88987;-55
2023/03/18 11:45:19;;;;;;;3.57;1.87;;;;;;;;;;4992005;28;88725;-55
2023/03/18 11:47:47;;;;;;;3.03;1.83;;;;;;;;;;4982809;28;87635;-54
2023/03/18 11:50:18;;;;;;;3.57;1.27;;;;;;;;;;4974411;28;86933;-54
2023/03/18 11:52:48;;;;;;;2.57;1.60;;;;;;;;;;4981907;28;88279;-54
2023/03/18 11:55:18;;;;;;;3.60;1.70;;;;;;;;;;4982352;28;87797;-54
2023/03/18 11:57:51;;;;;;;1.37;1.00;;;;;;;;;;4981676;28;87031;-55
2023/03/18 12:00:21;;;;;;;1.80;1.50;;;;;;;;;;4970424;28;88296;-54
2023/03/18 12:03:16;;;;;;;2.43;1.87;;;;;;;;;;4979818;28;88177;-55
2023/03/18 12:05:52;;;;;;;2.50;1.17;;;;;;;;;;4982031;28;88188;-55
2023/03/18 12:08:25;;;;;;;1.47;1.37;;;;;;;;;;4981452;28;87916;-53
2023/03/18 12:10:55;;;;;;;2.47;1.50;;;;;;;;;;4981655;28;87113;-54
2023/03/18 12:13:28;;;;;;;4.67;2.13;;;;;;;;;;4976687;28;89083;-55
2023/03/18 12:15:59;;;;;;;2.20;1.23;;;;;;;;;;4979373;28;87985;-55
2023/03/18 12:18:45;;;;;;;1.07;1.00;;;;;;;;;;4981825;28;87132;-55
2023/03/18 12:21:19;;;;;;;3.03;1.47;;;;;;;;;;4981390;28;87036;-55
2023/03/18 12:23:55;;;;;;;4.03;1.90;;;;;;;;;;4980843;28;88319;-55
2023/03/18 12:26:25;;;;;;;2.97;1.60;;;;;;;;;;4980671;28;87745;-54
2023/03/18 12:29:02;;;;;;;2.40;1.57;;;;;;;;;;4980436;28;87049;-54
2023/03/18 12:31:46;;;;;;;2.80;1.30;;;;;;;;;;4981539;28;87048;-55
2023/03/18 12:34:18;;;;;;;2.83;1.20;;;;;;;;;;4960676;28;89011;-54
2023/03/18 12:36:49;;;;;;;3.93;1.57;;;;;;;;;;4961678;28;88867;-54
2023/03/18 12:39:33;;;;;;;2.23;1.93;;;;;;;;;;4961645;28;87020;-54
2023/03/18 12:42:02;;;;;;;6.17;1.53;;;;;;;;;;4961812;28;87044;-54
2023/03/18 12:44:38;;;;;;;3.93;1.63;;;;;;;;;;4961443;28;88034;-54
2023/03/18 12:47:07;;;;;;;1.33;1.13;;;;;;;;;;4961885;28;88901;-55
2023/03/18 12:49:35;;;;;;;1.63;1.43;;;;;;;;;;4961941;28;87172;-54
2023/03/18 12:52:05;;;;;;;2.60;1.83;;;;;;;;;;4962343;28;86155;-54
2023/03/18 12:54:40;;;;;;;2.17;1.70;;;;;;;;;;4961172;28;89197;-54
2023/03/18 12:57:11;;;;;;;2.40;1.47;;;;;;;;;;4961920;28;87993;-54
2023/03/18 12:59:41;;;;;;;2.73;1.30;;;;;;;;;;4961640;28;87944;-54
2023/03/18 13:02:27;;;;;;;2.57;1.57;;;;;;;;;;4961593;28;87156;-54
2023/03/18 13:05:00;;;;;;;2.33;1.13;;;;;;;;;;4963119;28;89274;-54
2023/03/18 13:07:32;;;;;;;1.87;1.33;;;;;;;;;;4981221;28;88791;-54
2023/03/18 13:10:03;;;;;;;10.20;1.53;;;;;;;;;;4981950;28;86945;-55
2023/03/18 13:12:32;;;;;;;1.63;1.20;;;;;;;;;;4984595;28;87074;-55
2023/03/18 13:15:01;;;;;;;4.23;1.67;;;;;;;;;;4983827;28;88422;-54
2023/03/18 13:17:30;;;;;;;1.87;1.30;;;;;;;;;;4985055;28;87956;-55
2023/03/18 13:19:59;;;;;;;1.07;0.80;;;;;;;;;;4983958;28;87101;-54
2023/03/18 13:22:52;;;;;;;1.87;1.10;;;;;;;;;;4983913;28;87033;-54
2023/03/18 13:25:24;;;;;;;0.60;0.60;;;;;;;;;;4984060;28;90234;-55
2023/03/18 13:28:11;;;;;;;2.20;1.30;;;;;;;;;;4984020;28;88696;-55
2023/03/18 13:30:44;;;;;;;3.27;1.43;;;;;;;;;;4984197;28;87034;-54
2023/03/18 13:33:22;;;;;;;1.77;1.40;;;;;;;;;;4983963;28;86999;-54
2023/03/18 13:35:56;;;;;;;0.93;0.93;;;;;;;;;;4984318;28;88187;-54
2023/03/18 13:38:27;;;;;;;1.10;1.00;;;;;;;;;;4984415;28;87725;-55
2023/03/18 13:41:17;;;;;;;0.80;0.80;;;;;;;;;;4984676;28;86922;-54
2023/03/18 13:43:48;;;;;;;1.23;0.70;;;;;;;;;;4982379;28;86288;-54
2023/03/18 13:46:19;;;;;;;0.70;0.70;;;;;;;;;;4983518;28;88361;-54
2023/03/18 13:48:48;;;;;;;0.70;0.70;;;;;;;;;;4984000;28;88440;-54
2023/03/18 13:51:22;;;;;;;0.70;0.70;;;;;;;;;;4983677;28;87911;-55
2023/03/18 13:53:51;;;;;;;0.77;0.77;;;;;;;;;;4983901;28;87082;-54
2023/03/18 13:56:51;;;;;;;1.73;0.73;;;;;;;;;;4983687;28;89210;-54
2023/03/18 13:59:44;;;;;;;1.47;0.53;;;;;;;;;;4982849;28;87855;-54
2023/03/18 14:02:27;;;;;;;1.27;0.60;;;;;;;;;;4909222;28;87212;-54
2023/03/18 14:04:57;;;;;;;0.50;0.40;;;;;;;;;;4981280;28;87099;-54
2023/03/18 14:07:25;;;;;;;0.50;0.50;;;;;;;;;;4983388;28;86845;-54
2023/03/18 14:09:54;;;;;;;1.03;0.60;;;;;;;;;;4983773;28;87777;-54
2023/03/18 14:12:46;;;;;;;0.70;0.67;;;;;;;;;;4983788;28;86939;-54
2023/03/18 14:15:44;;;;;;;1.40;0.70;;;;;;;;;;4983174;28;87155;-54
2023/03/18 14:18:19;;;;;;;1.17;0.97;;;;;;;;;;4902119;28;90150;-55
2023/03/18 14:20:48;;;;;;;0.93;0.70;;;;;;;;;;4951650;28;89917;-55
2023/03/18 14:23:21;;;;;;;1.60;0.77;;;;;;;;;;4974345;28;87073;-55
2023/03/18 14:25:53;;;;;;;1.80;0.83;;;;;;;;;;4965158;28;87042;-55
2023/03/18 14:28:27;;;;;;;2.93;0.80;;;;;;;;;;4982905;28;89059;-55
2023/03/18 14:30:59;;;;;;;2.40;0.90;;;;;;;;;;4983112;28;87818;-54
2023/03/18 14:33:34;;;;;;;2.90;1.13;;;;;;;;;;4983308;28;87074;-55
2023/03/18 14:36:04;;;;;;;1.27;0.77;;;;;;;;;;4983574;28;86351;-55
2023/03/18 14:38:37;;;;;;;0.73;0.73;;;;;;;;;;4983073;28;87997;-55
2023/03/18 14:41:07;;;;;;;1.30;0.77;;;;;;;;;;4983245;28;87830;-55
2023/03/18 14:43:38;;;;;;;0.90;0.83;;;;;;;;;;4982473;28;87983;-55
2023/03/18 14:46:08;;;;;;;1.40;0.73;;;;;;;;;;4982636;28;87075;-54
2023/03/18 14:48:37;;;;;;;0.90;0.90;;;;;;;;;;4982985;28;89264;-55
2023/03/18 14:51:07;;;;;;;0.70;0.70;;;;;;;;;;4982815;28;89052;-55
2023/03/18 14:53:36;;;;;;;0.77;0.77;;;;;;;;;;4982597;28;87064;-55
2023/03/18 14:56:05;;;;;;;0.50;0.50;;;;;;;;;;4965320;28;87223;-54
2023/03/18 14:58:34;;;;;;;0.73;0.73;;;;;;;;;;4982512;28;88338;-54
2023/03/18 15:01:07;;;;;;;0.73;0.73;;;;;;;;;;4982796;28;86539;-55
2023/03/18 15:03:38;;;;;;;0.80;0.80;;;;;;;;;;4982877;28;87056;-55